createdAt,value
2023-11-22T00:01:43.153Z,8.47
2023-11-22T00:04:46.042Z,7.78
2023-11-22T00:07:49.295Z,8.52
2023-11-22T00:10:52.533Z,8.27
2023-11-22T00:13:58.485Z,8.68
2023-11-22T00:17:03.571Z,8.60
2023-11-22T00:20:07.931Z,8.45
2023-11-22T00:23:11.043Z,7.67
2023-11-22T00:26:14.317Z,8.65
2023-11-22T00:29:20.942Z,9.05
2023-11-22T00:32:24.960Z,8.17
2023-11-22T00:35:28.318Z,7.93
2023-11-22T00:38:31.695Z,7.40
2023-11-22T00:41:36.905Z,8.23
2023-11-22T00:44:40.154Z,7.82
2023-11-22T00:47:44.055Z,7.88
2023-11-22T00:50:47.357Z,7.60
2023-11-22T00:53:51.212Z,6.47
2023-11-22T00:56:54.180Z,7.85
2023-11-22T00:59:57.262Z,7.38
2023-11-22T01:03:00.585Z,7.63
2023-11-22T01:06:04.201Z,7.75
2023-11-22T01:09:10.165Z,8.05
2023-11-22T01:12:14.346Z,8.18
2023-11-22T01:15:17.875Z,8.02
2023-11-22T01:18:21.097Z,7.70
2023-11-22T01:21:24.977Z,8.55
2023-11-22T01:24:29.418Z,7.17
2023-11-22T01:27:32.555Z,7.60
2023-11-22T01:30:35.748Z,7.38
2023-11-22T01:33:39.066Z,7.17
2023-11-22T01:36:45.867Z,7.43
2023-11-22T01:39:50.287Z,7.25
2023-11-22T01:42:55.878Z,7.50
2023-11-22T01:45:58.906Z,7.00
2023-11-22T01:49:02.506Z,7.38
2023-11-22T01:52:06.098Z,7.40
2023-11-22T01:55:10.829Z,7.80
2023-11-22T01:58:14.094Z,8.43
2023-11-22T02:01:17.251Z,8.10
2023-11-22T02:04:21.668Z,8.50
2023-11-22T02:07:24.978Z,7.93
2023-11-22T02:10:28.162Z,7.93
2023-11-22T02:13:32.654Z,8.40
2023-11-22T02:16:36.705Z,7.63
2023-11-22T02:19:39.863Z,7.82
2023-11-22T02:22:48.241Z,8.25
2023-11-22T02:25:51.459Z,8.10
2023-11-22T02:28:54.626Z,7.93
2023-11-22T02:31:57.859Z,7.78
2023-11-22T02:35:02.146Z,7.83
2023-11-22T02:38:06.813Z,7.63
2023-11-22T02:41:10.606Z,7.13
2023-11-22T02:44:18.564Z,8.13
2023-11-22T02:47:21.791Z,7.32
2023-11-22T02:50:24.770Z,8.32
2023-11-22T02:53:28.577Z,7.30
2023-11-22T02:56:32.201Z,7.50
2023-11-22T02:59:35.216Z,8.18
2023-11-22T03:02:38.674Z,7.72
2023-11-22T03:05:41.875Z,7.90
2023-11-22T03:08:45.830Z,7.85
2023-11-22T03:11:49.107Z,8.00
2023-11-22T03:14:52.330Z,9.02
2023-11-22T03:17:55.895Z,8.57
2023-11-22T03:20:59.044Z,7.90
2023-11-22T03:24:05.040Z,7.68
2023-11-22T03:27:08.149Z,8.00
2023-11-22T03:30:13.363Z,8.75
2023-11-22T03:33:16.737Z,8.95
2023-11-22T03:36:19.837Z,9.77
2023-11-22T03:39:23.923Z,13.45
2023-11-22T03:42:28.152Z,14.02
2023-11-22T03:45:31.043Z,10.50
2023-11-22T03:48:34.287Z,11.02
2023-11-22T03:51:37.812Z,9.20
2023-11-22T03:54:41.369Z,10.75
2023-11-22T03:57:45.231Z,10.57
2023-11-22T04:00:48.844Z,10.27
2023-11-22T04:03:53.058Z,9.65
2023-11-22T04:06:56.355Z,10.77
2023-11-22T04:09:59.485Z,10.27
2023-11-22T04:13:02.623Z,10.05
2023-11-22T04:16:09.801Z,10.02
2023-11-22T04:19:13.473Z,10.13
2023-11-22T04:22:16.634Z,11.45
2023-11-22T04:25:19.838Z,10.45
2023-11-22T04:28:22.650Z,11.70
2023-11-22T04:31:25.896Z,11.60
2023-11-22T04:34:29.289Z,12.45
2023-11-22T04:37:33.804Z,11.33
2023-11-22T04:40:37.123Z,12.18
2023-11-22T04:43:40.181Z,13.13
2023-11-22T04:46:43.077Z,13.50
2023-11-22T04:49:46.366Z,12.90
2023-11-22T04:52:49.293Z,13.48
2023-11-22T04:55:52.223Z,13.88
2023-11-22T04:58:55.333Z,14.03
2023-11-22T05:01:58.871Z,15.77
2023-11-22T05:05:01.833Z,15.18
2023-11-22T05:08:05.413Z,16.63
2023-11-22T05:11:09.239Z,14.07
2023-11-22T05:14:12.624Z,14.73
2023-11-22T05:17:15.545Z,14.95
2023-11-22T05:20:18.952Z,15.32
2023-11-22T05:23:23.301Z,15.15
2023-11-22T05:26:26.996Z,17.25
2023-11-22T05:29:37.686Z,19.67
2023-11-22T05:32:46.167Z,21.80
2023-11-22T05:35:49.793Z,19.42
2023-11-22T05:38:53.026Z,18.73
2023-11-22T05:41:57.961Z,17.60
2023-11-22T05:45:00.786Z,18.50
2023-11-22T05:48:03.712Z,18.42
2023-11-22T05:51:07.281Z,19.48
2023-11-22T05:54:13.035Z,18.45
2023-11-22T05:57:16.639Z,17.65
2023-11-22T06:00:22.123Z,17.27
2023-11-22T06:03:25.422Z,18.60
2023-11-22T06:06:28.683Z,17.10
2023-11-22T06:09:32.064Z,16.53
2023-11-22T06:12:35.223Z,16.90
2023-11-22T06:15:38.643Z,16.60
2023-11-22T06:18:41.798Z,16.92
2023-11-22T06:21:45.092Z,19.70
2023-11-22T06:24:49.627Z,18.25
2023-11-22T06:27:53.174Z,23.15
2023-11-22T06:30:56.265Z,20.47
2023-11-22T06:34:01.038Z,29.45
2023-11-22T06:37:04.382Z,24.38
2023-11-22T06:40:09.473Z,20.93
2023-11-22T06:43:13.168Z,19.70
2023-11-22T06:46:17.775Z,23.90
2023-11-22T06:49:20.714Z,19.70
2023-11-22T06:52:24.039Z,19.75
2023-11-22T06:55:28.626Z,23.83
2023-11-22T06:58:31.822Z,21.15
2023-11-22T07:01:34.810Z,24.57
2023-11-22T07:04:38.519Z,21.80
2023-11-22T07:07:41.817Z,21.83
2023-11-22T07:10:46.445Z,18.83
2023-11-22T07:13:49.693Z,18.30
2023-11-22T07:16:54.957Z,19.98
2023-11-22T07:19:58.545Z,20.95
2023-11-22T07:23:01.686Z,20.00
2023-11-22T07:26:04.765Z,22.13
2023-11-22T07:29:07.746Z,21.33
2023-11-22T07:32:11.759Z,21.20
2023-11-22T07:35:17.128Z,20.88
2023-11-22T07:38:20.868Z,24.15
2023-11-22T07:41:24.217Z,22.80
2023-11-22T07:44:27.194Z,24.27
2023-11-22T07:47:30.366Z,24.33
2023-11-22T07:50:33.865Z,23.08
2023-11-22T07:53:37.700Z,22.90
2023-11-22T07:56:44.572Z,20.80
2023-11-22T07:59:48.984Z,20.17
2023-11-22T08:02:55.673Z,20.47
2023-11-22T08:05:58.901Z,19.45
2023-11-22T08:09:06.181Z,19.42
2023-11-22T08:12:09.408Z,22.00
2023-11-22T08:15:16.923Z,19.02
2023-11-22T08:18:20.422Z,17.88
2023-11-22T08:21:24.385Z,18.63
2023-11-22T08:24:27.992Z,15.65
2023-11-22T08:27:31.269Z,17.48
2023-11-22T08:30:36.931Z,17.92
2023-11-22T08:33:41.073Z,16.07
2023-11-22T08:36:44.679Z,18.92
2023-11-22T08:39:47.627Z,16.42
2023-11-22T08:42:51.250Z,16.40
2023-11-22T08:46:01.464Z,16.20
2023-11-22T08:49:12.809Z,15.18
2023-11-22T08:52:15.956Z,17.88
2023-11-22T08:55:21.499Z,19.38
2023-11-22T08:58:24.871Z,17.75
2023-11-22T09:01:27.960Z,16.35
2023-11-22T09:04:32.891Z,16.37
2023-11-22T09:07:37.143Z,21.85
2023-11-22T09:10:41.119Z,32.17
2023-11-22T09:13:44.364Z,26.33
2023-11-22T09:16:52.055Z,23.05
2023-11-22T09:19:57.416Z,22.42
2023-11-22T09:23:00.524Z,21.42
2023-11-22T09:26:04.778Z,18.42
2023-11-22T09:29:08.054Z,20.05
2023-11-22T09:32:12.031Z,18.02
2023-11-22T09:35:16.618Z,15.33
2023-11-22T09:38:20.152Z,16.67
2023-11-22T09:41:23.474Z,16.23
2023-11-22T09:44:26.886Z,22.33
2023-11-22T09:47:34.382Z,21.80
2023-11-22T09:50:44.339Z,25.33
2023-11-22T09:54:01.953Z,23.95
2023-11-22T09:57:10.025Z,24.60
2023-11-22T10:00:18.089Z,18.20
2023-11-22T10:03:22.349Z,18.90
2023-11-22T10:06:25.750Z,17.67
2023-11-22T10:09:31.068Z,16.50
2023-11-22T10:12:37.913Z,16.70
2023-11-22T10:15:41.188Z,13.40
2023-11-22T10:18:45.556Z,13.48
2023-11-22T10:22:08.255Z,12.07
2023-11-22T10:25:12.044Z,12.52
2023-11-22T10:28:15.299Z,13.98
2023-11-22T10:31:18.529Z,11.50
2023-11-22T10:34:25.428Z,12.05
2023-11-22T10:37:28.472Z,13.63
2023-11-22T10:40:31.677Z,17.65
2023-11-22T10:43:36.543Z,14.75
2023-11-22T10:46:42.853Z,12.03
2023-11-22T10:49:46.208Z,14.07
2023-11-22T10:52:56.592Z,15.38
2023-11-22T10:56:08.117Z,16.13
2023-11-22T10:59:15.411Z,12.00
2023-11-22T11:02:21.804Z,10.38
2023-11-22T11:05:31.454Z,9.82
2023-11-22T11:08:39.414Z,11.10
2023-11-22T11:11:43.520Z,10.40
2023-11-22T11:14:48.313Z,10.18
2023-11-22T11:17:51.998Z,11.00
2023-11-22T11:20:57.897Z,11.80
2023-11-22T11:24:04.756Z,12.88
2023-11-22T11:27:10.942Z,15.10
2023-11-22T11:30:51.443Z,12.43
2023-11-22T11:33:56.997Z,11.90
2023-11-22T11:37:04.950Z,11.50
2023-11-22T11:40:35.798Z,10.43
2023-11-22T11:43:43.936Z,10.63
2023-11-22T11:46:47.093Z,12.23
2023-11-22T11:49:51.944Z,11.37
2023-11-22T11:52:55.395Z,11.63
2023-11-22T11:55:59.451Z,12.20
2023-11-22T11:59:03.649Z,11.55
2023-11-22T12:02:07.250Z,10.60
2023-11-22T12:05:10.764Z,17.23
2023-11-22T12:08:18.501Z,12.45
2023-11-22T12:11:22.018Z,9.23
2023-11-22T12:14:25.121Z,10.65
2023-11-22T12:17:31.100Z,7.90
2023-11-22T12:20:34.280Z,7.30
2023-11-22T12:23:37.795Z,7.28
2023-11-22T12:26:43.087Z,7.65
2023-11-22T12:29:48.358Z,7.38
2023-11-22T12:32:52.856Z,7.35
2023-11-22T12:35:55.870Z,7.90
2023-11-22T12:39:01.686Z,6.53
2023-11-22T12:42:09.597Z,7.07
2023-11-22T12:45:25.982Z,7.53
2023-11-22T12:48:33.958Z,7.05
2023-11-22T12:51:36.918Z,6.23
2023-11-22T12:54:40.068Z,7.45
2023-11-22T12:57:45.698Z,7.18
2023-11-22T13:00:50.578Z,8.02
2023-11-22T13:03:53.644Z,7.32
2023-11-22T13:06:56.790Z,6.10
2023-11-22T13:10:01.073Z,7.78
2023-11-22T13:13:04.006Z,6.93
2023-11-22T13:16:07.343Z,7.47
2023-11-22T13:19:10.621Z,8.30
2023-11-22T13:22:15.030Z,7.30
2023-11-22T13:25:20.420Z,6.75
2023-11-22T13:28:25.608Z,6.40
2023-11-22T13:31:28.699Z,7.28
2023-11-22T13:34:31.933Z,8.02
2023-11-22T13:37:36.574Z,7.30
2023-11-22T13:40:41.327Z,7.05
2023-11-22T13:43:44.341Z,8.00
2023-11-22T13:46:47.397Z,8.77
2023-11-22T13:49:51.310Z,7.50
2023-11-22T13:52:56.579Z,8.97
2023-11-22T13:56:01.690Z,8.32
2023-11-22T13:59:04.653Z,7.57
2023-11-22T14:02:07.557Z,7.60
2023-11-22T14:05:10.885Z,8.02
2023-11-22T14:08:15.100Z,7.88
2023-11-22T14:11:19.049Z,8.23
2023-11-22T14:14:22.264Z,9.17
2023-11-22T14:17:26.123Z,9.57
2023-11-22T14:20:31.237Z,10.50
2023-11-22T14:23:34.851Z,10.57
2023-11-22T14:26:38.235Z,10.68
2023-11-22T14:29:42.113Z,8.18
2023-11-22T14:32:45.591Z,8.85
2023-11-22T14:35:49.033Z,8.93
2023-11-22T14:38:55.670Z,8.77
2023-11-22T14:41:58.938Z,8.90
2023-11-22T14:45:02.110Z,9.30
2023-11-22T14:48:05.651Z,10.25
2023-11-22T14:51:10.408Z,10.88
2023-11-22T14:54:13.412Z,14.00
2023-11-22T14:57:18.589Z,11.82
2023-11-22T15:00:22.444Z,10.60
2023-11-22T15:03:27.913Z,10.45
2023-11-22T15:06:31.694Z,9.50
2023-11-22T15:09:34.854Z,11.93
2023-11-22T15:12:40.667Z,9.68
2023-11-22T15:15:43.940Z,10.67
2023-11-22T15:18:47.240Z,13.70
2023-11-22T15:21:50.487Z,12.25
2023-11-22T15:24:53.781Z,14.00
2023-11-22T15:27:56.909Z,12.32
2023-11-22T15:31:01.417Z,12.70
2023-11-22T15:34:04.957Z,13.82
2023-11-22T15:37:07.929Z,12.35
2023-11-22T15:40:14.185Z,10.57
2023-11-22T15:43:17.795Z,12.00
2023-11-22T15:46:25.569Z,16.40
2023-11-22T15:49:28.966Z,12.45
2023-11-22T15:52:32.162Z,10.23
2023-11-22T15:55:35.364Z,14.83
2023-11-22T15:58:38.272Z,12.52
2023-11-22T16:01:41.706Z,10.80
2023-11-22T16:04:46.389Z,10.48
2023-11-22T16:07:49.617Z,9.63
2023-11-22T16:10:52.622Z,11.68
2023-11-22T16:13:55.581Z,10.57
2023-11-22T16:16:58.878Z,10.20
2023-11-22T16:20:05.562Z,10.48
2023-11-22T16:23:08.984Z,10.43
2023-11-22T16:26:12.473Z,13.17
2023-11-22T16:29:17.161Z,10.35
2023-11-22T16:32:20.799Z,12.27
2023-11-22T16:35:24.381Z,11.20
2023-11-22T16:38:27.385Z,11.45
2023-11-22T16:41:30.325Z,10.80
2023-11-22T16:44:33.723Z,12.18
2023-11-22T16:47:38.271Z,16.80
2023-11-22T16:50:41.863Z,15.80
2023-11-22T16:53:45.849Z,14.07
2023-11-22T16:56:49.357Z,16.07
2023-11-22T16:59:52.640Z,15.27
2023-11-22T17:03:00.866Z,11.60
2023-11-22T17:06:08.471Z,11.60
2023-11-22T17:09:13.209Z,11.82
2023-11-22T17:12:17.676Z,11.07
2023-11-22T17:15:20.790Z,10.45
2023-11-22T17:18:24.820Z,11.60
2023-11-22T17:21:29.335Z,11.55
2023-11-22T17:24:32.429Z,11.10
2023-11-22T17:27:46.012Z,12.87
2023-11-22T17:30:59.334Z,11.02
2023-11-22T17:34:02.769Z,12.90
2023-11-22T17:37:05.678Z,12.25
2023-11-22T17:40:09.075Z,13.60
2023-11-22T17:43:11.940Z,13.95
2023-11-22T17:46:14.970Z,11.88
2023-11-22T17:49:18.044Z,14.70
2023-11-22T17:52:21.484Z,13.85
2023-11-22T17:55:24.861Z,12.85
2023-11-22T17:58:29.067Z,13.07
2023-11-22T18:01:33.054Z,12.98
2023-11-22T18:04:36.455Z,12.73
2023-11-22T18:07:39.902Z,13.90
2023-11-22T18:10:46.909Z,14.35
2023-11-22T18:13:50.701Z,12.68
2023-11-22T18:16:54.804Z,14.20
2023-11-22T18:19:59.661Z,13.37
2023-11-22T18:23:03.795Z,14.32
2023-11-22T18:26:07.817Z,13.00
2023-11-22T18:29:13.245Z,13.43
2023-11-22T18:32:17.355Z,14.80
2023-11-22T18:35:21.334Z,14.05
2023-11-22T18:38:25.269Z,14.98
2023-11-22T18:41:28.919Z,13.45
2023-11-22T18:44:38.000Z,14.90
2023-11-22T18:47:43.319Z,16.10
2023-11-22T18:50:47.147Z,13.23
2023-11-22T18:53:51.073Z,15.20
2023-11-22T18:56:54.939Z,14.50
2023-11-22T18:59:58.422Z,16.13
2023-11-22T19:03:01.950Z,15.23
2023-11-22T19:06:06.442Z,15.05
2023-11-22T19:09:13.015Z,13.82
2023-11-22T19:12:19.203Z,13.90
2023-11-22T19:15:23.552Z,14.88
2023-11-22T19:18:27.485Z,15.45
2023-11-22T19:21:32.985Z,15.77
2023-11-22T19:24:36.416Z,14.30
2023-11-22T19:27:41.166Z,14.73
2023-11-22T19:30:45.256Z,14.13
2023-11-22T19:33:49.183Z,15.48
2023-11-22T19:36:56.029Z,14.43
2023-11-22T19:40:01.670Z,15.07
2023-11-22T19:43:06.786Z,16.08
2023-11-22T19:46:10.958Z,15.98
2023-11-22T19:49:16.417Z,15.82
2023-11-22T19:52:20.164Z,17.73
2023-11-22T19:55:23.835Z,17.63
2023-11-22T19:58:29.608Z,18.38
2023-11-22T20:01:34.506Z,15.17
2023-11-22T20:04:38.625Z,16.80
2023-11-22T20:07:42.587Z,14.57
2023-11-22T20:10:48.042Z,15.45
2023-11-22T20:13:52.386Z,17.27
2023-11-22T20:17:03.799Z,16.85
2023-11-22T20:20:08.403Z,20.63
2023-11-22T20:23:18.750Z,18.87
2023-11-22T20:26:24.296Z,19.52
2023-11-22T20:29:29.160Z,19.63
2023-11-22T20:32:35.247Z,19.67
2023-11-22T20:35:42.816Z,19.40
2023-11-22T20:38:51.239Z,19.42
2023-11-22T20:41:55.925Z,18.50
2023-11-22T20:45:00.613Z,17.15
2023-11-22T20:48:09.054Z,18.52
2023-11-22T20:51:14.307Z,17.98
2023-11-22T20:54:19.310Z,17.20
2023-11-22T20:57:25.179Z,18.25
2023-11-22T21:00:31.991Z,18.10
2023-11-22T21:03:37.700Z,18.03
2023-11-22T21:06:43.596Z,16.80
2023-11-22T21:09:48.187Z,17.17
2023-11-22T21:12:53.067Z,17.35
2023-11-22T21:15:58.682Z,15.80
2023-11-22T21:19:02.665Z,16.75
2023-11-22T21:22:05.687Z,17.45
2023-11-22T21:25:11.206Z,18.00
2023-11-22T21:28:14.725Z,17.25
2023-11-22T21:31:19.327Z,15.93
2023-11-22T21:34:22.618Z,15.50
2023-11-22T21:37:25.435Z,15.10
2023-11-22T21:40:28.704Z,14.63
2023-11-22T21:43:32.487Z,15.00
2023-11-22T21:46:35.383Z,14.05
2023-11-22T21:49:39.124Z,14.10
2023-11-22T21:52:43.811Z,13.18
2023-11-22T21:55:46.876Z,13.73
2023-11-22T21:58:50.081Z,14.13
2023-11-22T22:01:53.706Z,16.27
2023-11-22T22:04:56.728Z,23.70
2023-11-22T22:08:01.008Z,19.63
2023-11-22T22:11:04.831Z,17.42
2023-11-22T22:14:08.068Z,13.93
2023-11-22T22:17:10.950Z,13.70
2023-11-22T22:20:13.983Z,13.02
2023-11-22T22:23:17.538Z,13.20
2023-11-22T22:26:21.037Z,11.40
2023-11-22T22:29:24.282Z,11.80
2023-11-22T22:32:27.899Z,12.38
2023-11-22T22:35:33.899Z,12.70
2023-11-22T22:38:37.342Z,11.60
2023-11-22T22:41:40.190Z,12.95
2023-11-22T22:44:43.394Z,11.18
2023-11-22T22:47:46.740Z,13.57
2023-11-22T22:50:50.397Z,12.25
2023-11-22T22:53:53.860Z,13.20
2023-11-22T22:56:57.002Z,12.93
2023-11-22T23:00:00.315Z,14.50
2023-11-22T23:03:04.342Z,12.57
2023-11-22T23:06:09.287Z,13.87
2023-11-22T23:09:14.527Z,13.27
2023-11-22T23:12:18.936Z,13.43
2023-11-22T23:15:22.146Z,15.13
2023-11-22T23:18:25.391Z,17.25
2023-11-22T23:21:29.085Z,18.05
2023-11-22T23:24:33.250Z,15.93
2023-11-22T23:27:37.095Z,16.37
2023-11-22T23:30:40.363Z,17.13
2023-11-22T23:33:43.967Z,16.40
2023-11-22T23:36:47.259Z,15.50
2023-11-22T23:39:52.829Z,14.98
2023-11-22T23:42:57.532Z,14.32
2023-11-22T23:46:01.052Z,14.82
2023-11-22T23:49:04.272Z,15.05
2023-11-22T23:52:07.793Z,16.27
2023-11-22T23:55:13.980Z,16.08
2023-11-22T23:58:17.249Z,15.73
